Decoded Metar for OIZH (ZAHEDAN in IRAN) (IATA:ZAH) | Meteo·Mobile Aviation Weather
aviador You're here:

OIZH Decoded Metar

ZAHEDAN in IRAN
Report Time2019-01-19 17:30:00
UTC Time2019-01-19 17:37:15
Flight Rules vfr VFR
Wind240° at 25 Gusting to 35 kt
W.Decomp.*RWY 17: 9.0 kt HW 23.3 kt RCW
W.Rank240° ranks 20
Current wind is above 240° avg. (9.0)
Visibility8000 m
Phenomena:N/A
Clouds:N/A
Expected CloudBase > 4,800 ft AGL from Temp-Dew spread
CeilingNone
Temp12°C (ISA +6)
Dew Point00°C (44% RH)
AAT1.0°C
QNH1013 hPa
Density Alt5,282 ft
Elevation4,495 ft
Report Wrong Elevation
Raw Report
METAR OIZH 191730Z 24025G35KT 8000 NSC 12/M00 Q1013 A2993=

Extra information for OIZH:More info

Metar Taf Metar & Taf Last 4 Metars F.Rules Stats Wind Profile Meteogram Temp Stats Airport Information Weather charts Add Link Nearby VenuesMetar ALERT Operation Metar Decoded Social comments